createdAt,value
2022-10-13T00:00:20.028Z,153.70
2022-10-13T00:01:20.025Z,113.90
2022-10-13T00:02:20.443Z,62.70
2022-10-13T00:03:19.975Z,45.50
2022-10-13T00:04:19.973Z,30.40
2022-10-13T00:05:20.002Z,43.20
2022-10-13T00:06:19.951Z,73.80
2022-10-13T00:07:19.956Z,59.40
2022-10-13T00:08:19.907Z,35.50
2022-10-13T00:09:19.935Z,70.80
2022-10-13T00:10:19.940Z,38.40
2022-10-13T00:11:19.899Z,47.20
2022-10-13T00:12:20.266Z,47.80
2022-10-13T00:13:19.866Z,50.30
2022-10-13T00:14:19.866Z,34.40
2022-10-13T00:15:20.851Z,35.80
2022-10-13T00:16:19.837Z,66.70
2022-10-13T00:17:19.842Z,52.00
2022-10-13T00:18:19.810Z,58.00
2022-10-13T00:19:19.822Z,30.50
2022-10-13T00:20:19.860Z,44.40
2022-10-13T00:21:19.804Z,34.00
2022-10-13T00:22:21.153Z,43.00
2022-10-13T00:23:19.769Z,46.20
2022-10-13T00:24:19.758Z,64.70
2022-10-13T00:25:19.792Z,50.30
2022-10-13T00:26:19.735Z,61.10
2022-10-13T00:27:19.746Z,106.60
2022-10-13T00:28:19.752Z,83.20
2022-10-13T00:29:19.702Z,101.10
2022-10-13T00:30:19.755Z,129.70
2022-10-13T00:31:19.742Z,67.40
2022-10-13T00:32:20.053Z,97.80
2022-10-13T00:33:19.669Z,123.10
2022-10-13T00:34:19.753Z,51.40
2022-10-13T00:35:19.669Z,42.30
2022-10-13T00:36:19.685Z,74.90
2022-10-13T00:37:19.624Z,150.40
2022-10-13T00:38:19.622Z,92.10
2022-10-13T00:39:19.604Z,84.00
2022-10-13T00:40:19.610Z,71.10
2022-10-13T00:41:19.599Z,238.10
2022-10-13T00:42:19.944Z,61.70
2022-10-13T00:43:19.581Z,221.90
2022-10-13T00:44:19.564Z,73.90
2022-10-13T00:45:19.553Z,72.00
2022-10-13T00:46:19.558Z,133.60
2022-10-13T00:47:19.547Z,82.00
2022-10-13T00:48:19.541Z,83.40
2022-10-13T00:49:19.543Z,105.40
2022-10-13T00:50:19.514Z,145.60
2022-10-13T00:51:19.514Z,87.40
2022-10-13T00:52:19.802Z,60.10
2022-10-13T00:53:19.470Z,56.80
2022-10-13T00:54:19.602Z,50.10
2022-10-13T00:55:19.461Z,78.70
2022-10-13T00:56:19.449Z,91.00
2022-10-13T00:57:19.466Z,79.00
2022-10-13T00:58:19.433Z,68.30
2022-10-13T00:59:19.414Z,81.60
2022-10-13T01:00:19.417Z,81.20
2022-10-13T01:01:19.377Z,73.40
2022-10-13T01:02:19.673Z,88.40
2022-10-13T01:03:19.403Z,197.30
2022-10-13T01:04:19.374Z,60.90
2022-10-13T01:05:19.375Z,122.80
2022-10-13T01:06:23.436Z,99.10
2022-10-13T01:07:20.356Z,80.70
2022-10-13T01:08:19.335Z,77.60
2022-10-13T01:09:19.343Z,87.90
2022-10-13T01:10:19.341Z,75.10
2022-10-13T01:11:19.289Z,96.70
2022-10-13T01:12:19.600Z,125.80
2022-10-13T01:13:19.297Z,65.40
2022-10-13T01:14:19.271Z,88.20
2022-10-13T01:15:19.262Z,105.70
2022-10-13T01:16:19.258Z,73.20
2022-10-13T01:17:19.233Z,181.70
2022-10-13T01:18:19.222Z,93.40
2022-10-13T01:19:19.245Z,89.20
2022-10-13T01:20:19.241Z,77.70
2022-10-13T01:21:19.219Z,86.50
2022-10-13T01:22:19.589Z,80.50
2022-10-13T01:23:19.186Z,60.10
2022-10-13T01:24:19.214Z,77.10
2022-10-13T01:25:19.181Z,104.60
2022-10-13T01:26:19.165Z,85.30
2022-10-13T01:27:19.213Z,175.80
2022-10-13T01:28:19.163Z,85.40
2022-10-13T01:29:19.111Z,106.40
2022-10-13T01:30:19.102Z,78.30
2022-10-13T01:31:19.136Z,140.70
2022-10-13T01:32:19.405Z,198.00
2022-10-13T01:33:19.079Z,82.50
2022-10-13T01:34:19.074Z,105.50
2022-10-13T01:35:19.104Z,226.30
2022-10-13T01:36:19.058Z,135.70
2022-10-13T01:37:19.033Z,79.70
2022-10-13T01:38:19.058Z,46.80
2022-10-13T01:39:19.016Z,79.90
2022-10-13T01:40:19.035Z,97.70
2022-10-13T01:41:19.021Z,77.30
2022-10-13T01:42:19.305Z,77.30
2022-10-13T01:43:18.982Z,85.90
2022-10-13T01:44:19.011Z,76.80
2022-10-13T01:45:18.962Z,70.00
2022-10-13T01:46:19.987Z,74.20
2022-10-13T01:47:18.947Z,54.70
2022-10-13T01:48:18.933Z,84.00
2022-10-13T01:49:18.926Z,77.50
2022-10-13T01:50:18.954Z,84.30
2022-10-13T01:51:18.909Z,71.10
2022-10-13T01:52:19.275Z,193.50
2022-10-13T01:53:18.901Z,115.90
2022-10-13T01:54:18.889Z,59.60
2022-10-13T01:55:18.874Z,62.60
2022-10-13T01:56:18.858Z,67.80
2022-10-13T01:57:18.842Z,69.30
2022-10-13T01:58:18.834Z,135.70
2022-10-13T01:59:18.840Z,99.70
2022-10-13T02:00:18.813Z,78.20
2022-10-13T02:01:18.802Z,193.10
2022-10-13T02:02:19.272Z,82.50
2022-10-13T02:03:18.800Z,70.50
2022-10-13T02:04:18.823Z,94.30
2022-10-13T02:05:18.788Z,70.50
2022-10-13T02:06:18.770Z,70.80
2022-10-13T02:07:18.763Z,53.60
2022-10-13T02:08:18.757Z,75.90
2022-10-13T02:09:18.741Z,61.50
2022-10-13T02:10:18.727Z,57.90
2022-10-13T02:11:18.721Z,43.90
2022-10-13T02:12:18.936Z,70.30
2022-10-13T02:13:18.711Z,69.00
2022-10-13T02:14:18.682Z,95.40
2022-10-13T02:15:18.683Z,171.30
2022-10-13T02:16:18.653Z,110.70
2022-10-13T02:17:18.678Z,49.20
2022-10-13T02:18:18.671Z,144.60
2022-10-13T02:19:18.658Z,71.50
2022-10-13T02:20:18.628Z,115.90
2022-10-13T02:21:18.628Z,69.80
2022-10-13T02:22:18.924Z,169.50
2022-10-13T02:23:18.625Z,250.00
2022-10-13T02:24:18.591Z,93.20
2022-10-13T02:25:18.596Z,77.10
2022-10-13T02:26:18.595Z,63.60
2022-10-13T02:27:18.632Z,199.50
2022-10-13T02:28:18.600Z,45.00
2022-10-13T02:29:18.533Z,112.10
2022-10-13T02:30:18.513Z,159.50
2022-10-13T02:31:19.533Z,60.40
2022-10-13T02:32:18.812Z,113.30
2022-10-13T02:33:18.549Z,114.80
2022-10-13T02:34:18.494Z,133.00
2022-10-13T02:35:18.497Z,87.70
2022-10-13T02:36:28.383Z,60.80
2022-10-13T02:37:18.445Z,72.70
2022-10-13T02:38:18.455Z,61.10
2022-10-13T02:39:18.450Z,95.90
2022-10-13T02:40:18.451Z,164.40
2022-10-13T02:41:18.416Z,69.50
2022-10-13T02:42:19.073Z,80.10
2022-10-13T02:43:18.391Z,52.60
2022-10-13T02:44:18.388Z,106.80
2022-10-13T02:45:18.400Z,79.10
2022-10-13T02:46:18.367Z,122.80
2022-10-13T02:47:18.367Z,81.40
2022-10-13T02:48:18.353Z,121.10
2022-10-13T02:49:18.355Z,110.00
2022-10-13T02:50:18.354Z,98.40
2022-10-13T02:51:18.313Z,32.40
2022-10-13T02:52:18.638Z,64.90
2022-10-13T02:53:18.324Z,85.40
2022-10-13T02:54:18.283Z,88.50
2022-10-13T02:55:18.274Z,56.10
2022-10-13T02:56:18.265Z,35.60
2022-10-13T02:57:18.255Z,47.50
2022-10-13T02:58:18.260Z,50.30
2022-10-13T02:59:18.235Z,38.00
2022-10-13T03:00:18.260Z,31.90
2022-10-13T03:01:18.223Z,160.70
2022-10-13T03:02:18.783Z,107.00
2022-10-13T03:03:18.212Z,46.10
2022-10-13T03:04:18.316Z,58.20
2022-10-13T03:05:18.191Z,50.60
2022-10-13T03:06:18.179Z,95.80
2022-10-13T03:07:18.157Z,59.90
2022-10-13T03:08:18.146Z,31.90
2022-10-13T03:09:18.151Z,32.80
2022-10-13T03:10:18.124Z,108.80
2022-10-13T03:11:18.111Z,25.00
2022-10-13T03:12:18.368Z,29.40
2022-10-13T03:13:18.095Z,26.30
2022-10-13T03:14:18.105Z,29.80
2022-10-13T03:15:18.072Z,26.40
2022-10-13T03:16:18.067Z,34.70
2022-10-13T03:17:18.064Z,30.40
2022-10-13T03:18:18.049Z,26.60
2022-10-13T03:19:18.061Z,32.70
2022-10-13T03:20:18.028Z,31.10
2022-10-13T03:21:18.019Z,30.20
2022-10-13T03:22:18.345Z,30.70
2022-10-13T03:23:18.001Z,28.30
2022-10-13T03:24:17.990Z,25.40
2022-10-13T03:25:17.986Z,31.50
2022-10-13T03:26:17.966Z,40.40
2022-10-13T03:27:17.982Z,50.80
2022-10-13T03:28:17.992Z,49.80
2022-10-13T03:29:17.945Z,40.60
2022-10-13T03:30:17.927Z,56.70
2022-10-13T03:31:17.914Z,65.30
2022-10-13T03:32:18.283Z,45.30
2022-10-13T03:33:17.907Z,54.90
2022-10-13T03:34:17.893Z,38.60
2022-10-13T03:35:17.881Z,41.70
2022-10-13T03:36:17.872Z,54.60
2022-10-13T03:37:17.866Z,57.40
2022-10-13T03:38:17.869Z,134.40
2022-10-13T03:39:17.843Z,61.30
2022-10-13T03:40:17.828Z,58.60
2022-10-13T03:41:17.824Z,37.60
2022-10-13T03:42:18.130Z,28.90
2022-10-13T03:43:17.819Z,30.20
2022-10-13T03:44:17.789Z,34.80
2022-10-13T03:45:17.781Z,35.00
2022-10-13T03:46:17.774Z,32.60
2022-10-13T03:47:17.760Z,27.00
2022-10-13T03:48:17.755Z,29.50
2022-10-13T03:49:17.763Z,25.80
2022-10-13T03:50:17.732Z,25.00
2022-10-13T03:51:17.719Z,32.10
2022-10-13T03:52:18.155Z,35.00
2022-10-13T03:53:17.701Z,37.30
2022-10-13T03:54:17.701Z,27.20
2022-10-13T03:55:17.676Z,32.10
2022-10-13T03:56:17.674Z,44.30
2022-10-13T03:57:17.679Z,66.20
2022-10-13T03:58:17.662Z,99.40
2022-10-13T03:59:17.631Z,23.50
2022-10-13T04:00:17.630Z,86.30
2022-10-13T04:01:17.628Z,74.20
2022-10-13T04:02:17.937Z,76.70
2022-10-13T04:03:17.604Z,36.40
2022-10-13T04:04:17.599Z,50.40
2022-10-13T04:05:17.607Z,93.20
2022-10-13T04:06:17.579Z,97.30
2022-10-13T04:07:17.570Z,112.50
2022-10-13T04:08:17.549Z,47.40
2022-10-13T04:09:17.554Z,42.00
2022-10-13T04:10:17.545Z,49.60
2022-10-13T04:11:17.551Z,60.70
2022-10-13T04:12:20.868Z,39.30
2022-10-13T04:13:18.517Z,40.10
2022-10-13T04:14:17.500Z,59.70
2022-10-13T04:15:17.492Z,52.60
2022-10-13T04:16:17.506Z,84.80
2022-10-13T04:17:17.478Z,69.80
2022-10-13T04:18:17.474Z,46.60
2022-10-13T04:19:17.449Z,46.50
2022-10-13T04:20:17.440Z,49.80
2022-10-13T04:21:17.437Z,63.20
2022-10-13T04:22:17.829Z,43.00
2022-10-13T04:23:17.409Z,43.90
2022-10-13T04:24:17.409Z,45.70
2022-10-13T04:25:17.390Z,49.50
2022-10-13T04:26:17.389Z,75.80
2022-10-13T04:27:17.416Z,58.30
2022-10-13T04:28:17.417Z,45.50
2022-10-13T04:29:17.346Z,38.40
2022-10-13T04:30:17.342Z,55.10
2022-10-13T04:31:17.339Z,43.50
2022-10-13T04:32:17.703Z,66.60
2022-10-13T04:33:17.370Z,62.40
2022-10-13T04:34:17.308Z,97.00
2022-10-13T04:35:17.288Z,141.40
2022-10-13T04:36:17.288Z,41.40
2022-10-13T04:37:17.278Z,63.90
2022-10-13T04:38:17.291Z,56.10
2022-10-13T04:39:17.260Z,47.00
2022-10-13T04:40:17.264Z,63.80
2022-10-13T04:41:17.229Z,45.70
2022-10-13T04:42:17.585Z,60.70
2022-10-13T04:43:17.216Z,43.60
2022-10-13T04:44:17.201Z,63.50
2022-10-13T04:45:17.208Z,62.70
2022-10-13T04:46:17.186Z,41.40
2022-10-13T04:47:17.176Z,39.70
2022-10-13T04:48:17.157Z,41.50
2022-10-13T04:49:17.168Z,45.60
2022-10-13T04:50:18.162Z,53.10
2022-10-13T04:51:17.135Z,48.70
2022-10-13T04:52:17.321Z,51.50
2022-10-13T04:53:19.314Z,41.50
2022-10-13T04:54:18.110Z,35.60
2022-10-13T04:55:17.088Z,47.80
2022-10-13T04:56:17.109Z,39.00
2022-10-13T04:57:17.075Z,61.10
2022-10-13T04:58:17.064Z,42.30
2022-10-13T04:59:17.062Z,45.80
2022-10-13T05:00:17.050Z,44.90
2022-10-13T05:01:21.349Z,44.60
2022-10-13T05:02:18.326Z,44.20
2022-10-13T05:03:17.010Z,56.90
2022-10-13T05:04:17.011Z,55.40
2022-10-13T05:05:17.007Z,47.40
2022-10-13T05:06:17.010Z,43.20
2022-10-13T05:07:18.470Z,42.40
2022-10-13T05:08:17.976Z,50.90
2022-10-13T05:09:16.959Z,43.70
2022-10-13T05:10:16.952Z,45.60
2022-10-13T05:11:16.956Z,46.00
2022-10-13T05:12:17.086Z,42.70
2022-10-13T05:13:16.917Z,48.60
2022-10-13T05:14:16.912Z,33.90
2022-10-13T05:15:16.903Z,50.20
2022-10-13T05:16:16.889Z,45.30
2022-10-13T05:17:17.003Z,60.40
2022-10-13T05:18:16.892Z,41.40
2022-10-13T05:19:16.866Z,41.50
2022-10-13T05:20:16.858Z,47.80
2022-10-13T05:21:16.843Z,48.50
2022-10-13T05:22:17.071Z,41.00
2022-10-13T05:23:16.816Z,40.20
2022-10-13T05:24:16.806Z,65.50
2022-10-13T05:25:16.811Z,48.30
2022-10-13T05:26:16.797Z,51.60
2022-10-13T05:27:16.796Z,55.10
2022-10-13T05:28:16.890Z,42.20
2022-10-13T05:29:16.784Z,52.30
2022-10-13T05:30:16.778Z,44.30
2022-10-13T05:31:16.742Z,61.50
2022-10-13T05:32:17.002Z,55.10
2022-10-13T05:33:16.713Z,56.40
2022-10-13T05:34:16.728Z,47.20
2022-10-13T05:35:16.716Z,58.90
2022-10-13T05:36:16.691Z,55.50
2022-10-13T05:37:16.688Z,52.00
2022-10-13T05:38:16.684Z,48.60
2022-10-13T05:39:16.723Z,50.60
2022-10-13T05:40:16.643Z,56.50
2022-10-13T05:41:16.645Z,63.80
2022-10-13T05:42:16.764Z,43.50
2022-10-13T05:43:16.640Z,55.50
2022-10-13T05:44:16.629Z,153.60
2022-10-13T05:45:16.603Z,84.30
2022-10-13T05:46:16.596Z,83.30
2022-10-13T05:47:16.608Z,57.30
2022-10-13T05:48:16.577Z,60.10
2022-10-13T05:49:16.569Z,64.20
2022-10-13T05:50:16.558Z,61.00
2022-10-13T05:51:16.559Z,61.10
2022-10-13T05:52:16.784Z,54.80
2022-10-13T05:53:16.542Z,69.50
2022-10-13T05:54:16.532Z,58.90
2022-10-13T05:55:16.512Z,48.00
2022-10-13T05:56:16.528Z,55.50
2022-10-13T05:57:16.486Z,51.30
2022-10-13T05:58:16.476Z,58.70
2022-10-13T05:59:16.495Z,48.50
2022-10-13T06:00:16.489Z,54.90
2022-10-13T06:01:16.471Z,61.10
2022-10-13T06:02:16.501Z,68.00
2022-10-13T06:03:16.433Z,61.20
2022-10-13T06:04:16.422Z,61.70
2022-10-13T06:05:16.422Z,55.00
2022-10-13T06:06:16.401Z,49.90
2022-10-13T06:07:16.412Z,83.90
2022-10-13T06:08:16.380Z,52.60
2022-10-13T06:09:16.374Z,54.30
2022-10-13T06:10:16.362Z,60.50
2022-10-13T06:11:16.356Z,62.20
2022-10-13T06:12:16.391Z,50.60
2022-10-13T06:13:16.372Z,51.30
2022-10-13T06:14:16.323Z,52.50
2022-10-13T06:15:16.329Z,44.80
2022-10-13T06:16:16.305Z,39.10
2022-10-13T06:17:16.325Z,55.60
2022-10-13T06:18:16.341Z,44.40
2022-10-13T06:19:16.279Z,44.70
2022-10-13T06:20:16.263Z,44.00
2022-10-13T06:21:16.264Z,38.90
2022-10-13T06:22:16.242Z,44.90
2022-10-13T06:23:16.242Z,41.60
2022-10-13T06:24:16.245Z,47.90
2022-10-13T06:25:16.214Z,36.40
2022-10-13T06:26:16.213Z,35.50
2022-10-13T06:27:16.201Z,33.80
2022-10-13T06:28:16.261Z,42.70
2022-10-13T06:29:16.209Z,34.30
2022-10-13T06:30:16.177Z,34.50
2022-10-13T06:31:16.162Z,38.20
2022-10-13T06:32:16.163Z,30.50
2022-10-13T06:33:16.145Z,29.90
2022-10-13T06:34:16.156Z,29.30
2022-10-13T06:35:16.140Z,27.10
2022-10-13T06:36:16.123Z,25.90
2022-10-13T06:37:16.122Z,27.00
2022-10-13T06:38:16.092Z,27.00
2022-10-13T06:39:16.091Z,25.50
2022-10-13T06:40:16.109Z,22.00
2022-10-13T06:41:16.072Z,24.90
2022-10-13T06:42:16.061Z,23.10
2022-10-13T06:43:16.053Z,21.10
2022-10-13T06:44:16.033Z,21.80
2022-10-13T06:45:16.048Z,21.40
2022-10-13T06:46:16.007Z,20.50
2022-10-13T06:47:16.035Z,20.30
2022-10-13T06:48:15.997Z,19.90
2022-10-13T06:49:15.989Z,19.00
2022-10-13T06:50:15.983Z,19.60
2022-10-13T06:51:16.001Z,19.40
2022-10-13T06:52:15.979Z,20.00
2022-10-13T06:53:15.947Z,20.70
2022-10-13T06:54:15.948Z,20.30
2022-10-13T06:55:15.927Z,21.20
2022-10-13T06:56:15.910Z,19.10
2022-10-13T06:57:15.905Z,19.30
2022-10-13T06:58:15.901Z,19.30
2022-10-13T06:59:15.889Z,20.20
2022-10-13T07:00:15.907Z,20.50
2022-10-13T07:01:15.859Z,20.60
2022-10-13T07:02:15.848Z,19.10
2022-10-13T07:03:15.854Z,20.70
2022-10-13T07:04:15.824Z,21.20
2022-10-13T07:05:15.843Z,22.20
2022-10-13T07:06:15.829Z,22.40
2022-10-13T07:07:15.805Z,23.20
2022-10-13T07:08:15.798Z,22.80
2022-10-13T07:09:15.782Z,25.50
2022-10-13T07:10:15.794Z,24.00
2022-10-13T07:11:16.621Z,22.00
2022-10-13T07:12:15.764Z,26.90
2022-10-13T07:13:15.823Z,25.20
2022-10-13T07:14:15.741Z,29.90
2022-10-13T07:15:15.728Z,29.20
2022-10-13T07:16:15.757Z,25.70
2022-10-13T07:17:15.708Z,26.40
2022-10-13T07:18:15.692Z,27.60
2022-10-13T07:19:15.705Z,29.60
2022-10-13T07:20:15.699Z,31.00
2022-10-13T07:21:15.685Z,24.40
2022-10-13T07:22:15.662Z,31.50
2022-10-13T07:23:15.644Z,28.20
2022-10-13T07:24:15.644Z,31.10
2022-10-13T07:25:15.656Z,32.00
2022-10-13T07:26:15.631Z,31.40
2022-10-13T07:27:15.630Z,33.40
2022-10-13T07:28:15.644Z,29.30
2022-10-13T07:29:15.640Z,32.20
2022-10-13T07:30:15.583Z,32.40
2022-10-13T07:31:15.579Z,34.50
2022-10-13T07:32:15.564Z,36.90
2022-10-13T07:33:15.557Z,43.30
2022-10-13T07:34:15.582Z,35.10
2022-10-13T07:35:15.540Z,38.90
2022-10-13T07:36:15.536Z,39.60
2022-10-13T07:37:15.534Z,39.00
2022-10-13T07:38:15.534Z,37.70
2022-10-13T07:39:15.502Z,38.20
2022-10-13T07:40:15.500Z,42.40
2022-10-13T07:41:15.484Z,38.90
2022-10-13T07:42:15.459Z,37.30
2022-10-13T07:43:16.465Z,37.20
2022-10-13T07:44:15.456Z,38.60
2022-10-13T07:45:15.440Z,37.90
2022-10-13T07:46:15.430Z,37.90
2022-10-13T07:47:15.445Z,36.70
2022-10-13T07:48:15.444Z,36.60
2022-10-13T07:49:16.380Z,36.40
2022-10-13T07:50:15.391Z,38.00
2022-10-13T07:51:15.377Z,35.10
2022-10-13T07:52:15.420Z,32.80
2022-10-13T07:53:15.383Z,34.80
2022-10-13T07:54:15.355Z,35.30
2022-10-13T07:55:15.342Z,42.80
2022-10-13T07:56:15.360Z,36.50
2022-10-13T07:57:15.325Z,33.50
2022-10-13T07:58:15.330Z,30.80
2022-10-13T07:59:15.302Z,33.20
2022-10-13T08:00:15.295Z,34.00
2022-10-13T08:01:15.337Z,37.90
2022-10-13T08:02:15.291Z,32.50
2022-10-13T08:03:15.289Z,34.20
2022-10-13T08:04:15.261Z,35.20
2022-10-13T08:05:15.245Z,35.40
2022-10-13T08:06:15.990Z,32.40
2022-10-13T08:07:15.242Z,33.30
2022-10-13T08:08:15.247Z,33.20
2022-10-13T08:09:15.223Z,32.60
2022-10-13T08:10:15.216Z,35.10
2022-10-13T08:11:16.731Z,34.40
2022-10-13T08:12:15.178Z,37.40
2022-10-13T08:13:15.181Z,34.90
2022-10-13T08:14:15.174Z,34.70
2022-10-13T08:15:15.155Z,35.20
2022-10-13T08:16:15.178Z,35.60
2022-10-13T08:17:15.123Z,37.70
2022-10-13T08:18:15.130Z,37.80
2022-10-13T08:19:15.112Z,41.40
2022-10-13T08:20:15.089Z,37.10
2022-10-13T08:22:16.093Z,41.30
2022-10-13T08:23:15.071Z,36.70
2022-10-13T08:24:15.053Z,37.40
2022-10-13T08:25:15.074Z,37.70
2022-10-13T08:26:15.040Z,35.60
2022-10-13T08:27:15.039Z,35.60
2022-10-13T08:28:15.061Z,36.20
2022-10-13T08:29:23.338Z,36.00
2022-10-13T08:30:17.128Z,39.00
2022-10-13T08:31:15.160Z,34.30
2022-10-13T08:32:14.991Z,33.50
2022-10-13T08:33:14.965Z,38.40
2022-10-13T08:34:14.971Z,34.20
2022-10-13T08:35:14.971Z,33.30
2022-10-13T08:36:14.978Z,35.10
2022-10-13T08:37:46.825Z,34.40
2022-10-13T08:38:14.933Z,34.80
2022-10-13T08:39:14.912Z,33.00
2022-10-13T08:40:14.903Z,36.00
2022-10-13T08:41:14.919Z,37.20
2022-10-13T08:42:14.891Z,37.40
2022-10-13T08:43:14.877Z,37.20
2022-10-13T08:44:59.224Z,36.70
2022-10-13T08:45:39.853Z,37.40
2022-10-13T08:46:16.857Z,38.50
2022-10-13T08:47:14.844Z,36.40
2022-10-13T08:48:14.830Z,37.10
2022-10-13T08:49:14.845Z,37.30
2022-10-13T08:50:14.906Z,42.00
2022-10-13T08:51:14.802Z,39.40
2022-10-13T08:52:14.819Z,43.90
2022-10-13T08:53:14.784Z,37.30
2022-10-13T08:54:14.769Z,39.40
2022-10-13T08:55:14.790Z,41.80
2022-10-13T08:56:14.755Z,42.90
2022-10-13T08:57:14.753Z,39.90
2022-10-13T08:58:14.753Z,38.20
2022-10-13T08:59:14.728Z,41.50
2022-10-13T09:00:14.747Z,40.10
2022-10-13T09:01:14.830Z,42.30
2022-10-13T09:02:14.691Z,41.60
2022-10-13T09:03:14.673Z,37.60
2022-10-13T09:04:14.677Z,39.00
2022-10-13T09:05:14.673Z,41.70
2022-10-13T09:06:14.695Z,38.80
2022-10-13T09:07:14.658Z,36.00
2022-10-13T09:08:14.635Z,45.40
2022-10-13T09:09:14.621Z,41.90
2022-10-13T09:10:14.614Z,40.60
2022-10-13T09:11:14.625Z,35.90
2022-10-13T09:12:14.610Z,40.20
2022-10-13T09:13:14.599Z,38.60
2022-10-13T09:14:14.602Z,38.00
2022-10-13T09:15:14.591Z,38.70
2022-10-13T09:16:14.569Z,36.30
2022-10-13T09:18:14.547Z,40.50
2022-10-13T09:19:14.598Z,38.50
2022-10-13T09:20:14.509Z,36.40
2022-10-13T09:21:14.511Z,38.70
2022-10-13T09:22:14.494Z,35.40
2022-10-13T09:23:14.487Z,36.20
2022-10-13T09:24:14.521Z,36.80
2022-10-13T09:25:14.510Z,42.70
2022-10-13T09:26:14.500Z,36.10
2022-10-13T09:27:15.464Z,38.70
2022-10-13T09:28:14.474Z,35.30
2022-10-13T09:29:14.443Z,34.30
2022-10-13T09:30:14.417Z,35.20
2022-10-13T09:31:14.415Z,36.20
2022-10-13T09:32:14.426Z,33.60
2022-10-13T09:33:14.390Z,33.80
2022-10-13T09:34:14.389Z,33.80
2022-10-13T09:35:14.384Z,33.80
2022-10-13T09:36:14.394Z,33.30
2022-10-13T09:37:14.355Z,33.60
2022-10-13T09:38:14.358Z,32.40
2022-10-13T09:39:14.336Z,30.20
2022-10-13T09:40:14.327Z,31.60
2022-10-13T09:41:14.318Z,31.30
2022-10-13T09:42:14.312Z,31.00
2022-10-13T09:43:14.317Z,30.50
2022-10-13T09:44:14.287Z,31.60
2022-10-13T09:45:14.321Z,31.10
2022-10-13T09:46:14.304Z,29.40
2022-10-13T09:47:14.303Z,27.00
2022-10-13T09:48:14.259Z,27.90
2022-10-13T09:49:14.243Z,31.40
2022-10-13T09:50:14.290Z,28.90
2022-10-13T09:51:14.232Z,28.70
2022-10-13T09:52:14.228Z,30.00
2022-10-13T09:53:14.216Z,27.00
2022-10-13T09:54:14.245Z,28.10
2022-10-13T09:55:14.179Z,27.90
2022-10-13T09:56:14.228Z,25.20
2022-10-13T09:57:14.189Z,27.60
2022-10-13T09:58:14.154Z,29.10
2022-10-13T09:59:14.156Z,27.30
2022-10-13T10:00:14.226Z,27.80
2022-10-13T10:01:14.129Z,25.60
2022-10-13T10:02:18.020Z,27.80
2022-10-13T10:03:15.147Z,29.10
2022-10-13T10:04:14.141Z,27.20
2022-10-13T10:05:14.093Z,24.90
2022-10-13T10:06:14.085Z,27.10
2022-10-13T10:07:14.066Z,23.80
2022-10-13T10:08:14.097Z,25.10
2022-10-13T10:09:14.059Z,26.70
2022-10-13T10:10:14.115Z,23.60
2022-10-13T10:11:14.038Z,25.90
2022-10-13T10:12:14.062Z,23.60
2022-10-13T10:13:14.025Z,26.00
2022-10-13T10:14:13.991Z,26.40
2022-10-13T10:15:13.995Z,22.30
2022-10-13T10:16:13.985Z,22.50
2022-10-13T10:17:13.991Z,21.10
2022-10-13T10:18:13.944Z,20.00
2022-10-13T10:19:13.945Z,25.00
2022-10-13T10:20:13.984Z,27.50
2022-10-13T10:21:13.959Z,26.90
2022-10-13T10:22:13.915Z,24.40
2022-10-13T10:23:13.905Z,23.00
2022-10-13T10:24:13.941Z,22.30
2022-10-13T10:25:13.881Z,21.20
2022-10-13T10:26:13.870Z,20.80
2022-10-13T10:27:13.913Z,21.80
2022-10-13T10:28:13.954Z,20.20
2022-10-13T10:29:13.838Z,19.90
2022-10-13T10:30:13.849Z,20.20
2022-10-13T10:31:13.826Z,21.00
2022-10-13T10:32:13.840Z,19.10
2022-10-13T10:33:13.797Z,22.40
2022-10-13T10:34:15.471Z,22.70
2022-10-13T10:35:13.804Z,23.00
2022-10-13T10:36:13.788Z,22.90
2022-10-13T10:37:13.793Z,21.80
2022-10-13T10:38:13.784Z,23.90
2022-10-13T10:39:13.772Z,23.60
2022-10-13T10:40:13.753Z,25.80
2022-10-13T10:41:13.720Z,23.50
2022-10-13T10:42:13.825Z,25.70
2022-10-13T10:43:13.738Z,27.60
2022-10-13T10:44:13.749Z,25.30
2022-10-13T10:45:13.726Z,25.60
2022-10-13T10:46:13.694Z,22.90
2022-10-13T10:47:13.675Z,21.50
2022-10-13T10:48:13.663Z,19.70
2022-10-13T10:49:13.659Z,21.70
2022-10-13T10:50:13.638Z,23.40
2022-10-13T10:51:13.643Z,19.60
2022-10-13T10:52:13.634Z,20.40
2022-10-13T10:53:13.621Z,19.10
2022-10-13T10:54:13.628Z,20.50
2022-10-13T10:55:13.608Z,20.30
2022-10-13T10:56:13.576Z,19.30
2022-10-13T10:57:13.568Z,21.30
2022-10-13T10:58:13.559Z,17.60
2022-10-13T10:59:13.578Z,19.40
2022-10-13T11:00:13.613Z,19.40
2022-10-13T11:01:13.563Z,22.30
2022-10-13T11:02:13.522Z,20.70
2022-10-13T11:03:13.510Z,21.20
2022-10-13T11:04:13.504Z,19.80
2022-10-13T11:05:13.515Z,21.00
2022-10-13T11:06:13.484Z,22.50
2022-10-13T11:07:13.543Z,19.30
2022-10-13T11:08:13.463Z,19.90
2022-10-13T11:09:13.455Z,19.40
2022-10-13T11:10:13.462Z,19.30
2022-10-13T11:11:13.453Z,19.60
2022-10-13T11:12:13.450Z,19.80
2022-10-13T11:13:13.423Z,18.90
2022-10-13T11:14:13.421Z,20.00
2022-10-13T11:15:13.384Z,20.60
2022-10-13T11:16:13.399Z,20.70
2022-10-13T11:17:13.400Z,18.10
2022-10-13T11:18:13.435Z,18.90
2022-10-13T11:19:13.369Z,20.00
2022-10-13T11:20:13.353Z,20.30
2022-10-13T11:21:13.346Z,23.50
2022-10-13T11:22:13.324Z,19.20
2022-10-13T11:23:13.322Z,20.70
2022-10-13T11:24:13.291Z,18.70
2022-10-13T11:25:13.284Z,17.40
2022-10-13T11:26:13.283Z,21.50
2022-10-13T11:27:13.291Z,21.00
2022-10-13T11:28:13.302Z,23.00
2022-10-13T11:29:13.242Z,20.40
2022-10-13T11:30:13.249Z,20.80
2022-10-13T11:31:13.247Z,19.40
2022-10-13T11:32:13.232Z,23.00
2022-10-13T11:33:13.211Z,20.30
2022-10-13T11:34:13.192Z,19.10
2022-10-13T11:35:13.193Z,21.20
2022-10-13T11:36:13.181Z,20.50
2022-10-13T11:37:13.171Z,21.00
2022-10-13T11:38:17.595Z,23.20
2022-10-13T11:39:14.167Z,19.70
2022-10-13T11:40:13.146Z,19.90
2022-10-13T11:41:13.140Z,19.10
2022-10-13T11:42:13.117Z,22.20
2022-10-13T11:43:14.121Z,22.00
2022-10-13T11:44:13.100Z,20.80
2022-10-13T11:45:13.090Z,21.90
2022-10-13T11:46:13.069Z,20.40
2022-10-13T11:47:13.071Z,21.10
2022-10-13T11:48:13.095Z,20.50
2022-10-13T11:49:13.050Z,17.60
2022-10-13T11:50:13.038Z,19.20
2022-10-13T11:51:15.520Z,17.30
2022-10-13T11:52:13.040Z,20.00
2022-10-13T11:53:13.026Z,22.70
2022-10-13T11:54:13.002Z,19.20
2022-10-13T11:55:12.994Z,18.30
2022-10-13T11:56:12.981Z,16.20
2022-10-13T11:57:12.999Z,19.20
2022-10-13T11:58:12.955Z,15.40
2022-10-13T11:59:12.946Z,15.90
2022-10-13T12:00:12.954Z,15.00
2022-10-13T12:01:12.940Z,15.90
2022-10-13T12:02:12.943Z,16.60
2022-10-13T12:03:13.025Z,15.90
2022-10-13T12:04:12.894Z,15.50
2022-10-13T12:05:12.899Z,14.90
2022-10-13T12:06:12.899Z,14.30
2022-10-13T12:07:12.880Z,14.10
2022-10-13T12:08:12.881Z,15.60
2022-10-13T12:09:12.870Z,14.70
2022-10-13T12:10:12.868Z,14.90
2022-10-13T12:11:12.851Z,16.60
2022-10-13T12:12:12.823Z,12.80
2022-10-13T12:13:12.826Z,11.20
2022-10-13T12:14:12.824Z,12.30
2022-10-13T12:15:12.802Z,13.60
2022-10-13T12:16:12.821Z,12.40
2022-10-13T12:17:17.136Z,12.20
2022-10-13T12:18:13.792Z,12.20
2022-10-13T12:19:12.776Z,12.70
2022-10-13T12:20:12.753Z,12.60
2022-10-13T12:21:12.741Z,14.00
2022-10-13T12:22:12.726Z,11.60
2022-10-13T12:23:12.715Z,12.10
2022-10-13T12:24:12.710Z,14.90
2022-10-13T12:25:12.702Z,16.50
2022-10-13T12:26:12.686Z,11.40
2022-10-13T12:27:12.692Z,13.60
2022-10-13T12:28:12.726Z,14.10
2022-10-13T12:29:12.666Z,13.60
2022-10-13T12:30:12.651Z,12.30
2022-10-13T12:31:12.640Z,15.20
2022-10-13T12:32:12.650Z,13.20
2022-10-13T12:33:12.628Z,15.30
2022-10-13T12:34:12.643Z,13.30
2022-10-13T12:35:12.597Z,12.00
2022-10-13T12:36:12.598Z,14.00
2022-10-13T12:37:12.608Z,13.90
2022-10-13T12:38:12.574Z,15.90
2022-10-13T12:39:12.576Z,17.00
2022-10-13T12:40:12.557Z,17.00
2022-10-13T12:41:12.549Z,16.40
2022-10-13T12:42:12.555Z,15.60
2022-10-13T12:43:12.530Z,17.40
2022-10-13T12:44:12.512Z,17.80
2022-10-13T12:45:12.532Z,18.60
2022-10-13T12:46:12.521Z,14.20
2022-10-13T12:47:12.488Z,14.20
2022-10-13T12:48:12.479Z,14.90
2022-10-13T12:49:12.484Z,15.40
2022-10-13T12:50:12.475Z,14.10
2022-10-13T12:51:12.454Z,13.90
2022-10-13T12:52:12.431Z,14.50